sensor_id;sensor_type;location;lat;lon;timestamp;P1;durP1;ratioP1;P2;durP2;ratioP2
71572;SDS011;59408;51.032;9.410;2022-08-19T00:01:49;26.67;;;15.95;;
71572;SDS011;59408;51.032;9.410;2022-08-19T00:04:19;28.05;;;16.60;;
71572;SDS011;59408;51.032;9.410;2022-08-19T00:06:48;27.45;;;15.93;;
71572;SDS011;59408;51.032;9.410;2022-08-19T00:09:15;26.08;;;15.68;;
71572;SDS011;59408;51.032;9.410;2022-08-19T00:11:43;26.37;;;15.23;;
71572;SDS011;59408;51.032;9.410;2022-08-19T00:14:11;25.83;;;14.53;;
71572;SDS011;59408;51.032;9.410;2022-08-19T00:16:40;31.15;;;17.48;;
71572;SDS011;59408;51.032;9.410;2022-08-19T00:19:08;28.67;;;16.77;;
71572;SDS011;59408;51.032;9.410;2022-08-19T00:21:35;30.90;;;18.48;;
71572;SDS011;59408;51.032;9.410;2022-08-19T00:24:02;31.08;;;18.10;;
71572;SDS011;59408;51.032;9.410;2022-08-19T00:26:29;30.37;;;17.93;;
71572;SDS011;59408;51.032;9.410;2022-08-19T00:28:56;26.92;;;16.23;;
71572;SDS011;59408;51.032;9.410;2022-08-19T00:31:22;31.30;;;17.65;;
71572;SDS011;59408;51.032;9.410;2022-08-19T00:33:49;27.00;;;16.80;;
71572;SDS011;59408;51.032;9.410;2022-08-19T00:36:17;27.63;;;16.55;;
71572;SDS011;59408;51.032;9.410;2022-08-19T00:38:44;28.53;;;16.97;;
71572;SDS011;59408;51.032;9.410;2022-08-19T00:41:12;27.80;;;15.88;;
71572;SDS011;59408;51.032;9.410;2022-08-19T00:43:39;25.63;;;15.52;;
71572;SDS011;59408;51.032;9.410;2022-08-19T00:46:06;25.88;;;15.45;;
71572;SDS011;59408;51.032;9.410;2022-08-19T00:48:33;28.42;;;16.67;;
71572;SDS011;59408;51.032;9.410;2022-08-19T00:51:01;29.67;;;16.70;;
71572;SDS011;59408;51.032;9.410;2022-08-19T00:53:30;27.07;;;15.93;;
71572;SDS011;59408;51.032;9.410;2022-08-19T00:55:58;28.42;;;16.08;;
71572;SDS011;59408;51.032;9.410;2022-08-19T00:58:27;27.15;;;16.27;;
71572;SDS011;59408;51.032;9.410;2022-08-19T01:00:56;28.23;;;15.65;;
71572;SDS011;59408;51.032;9.410;2022-08-19T01:03:23;26.25;;;15.48;;
71572;SDS011;59408;51.032;9.410;2022-08-19T01:05:50;26.30;;;15.73;;
71572;SDS011;59408;51.032;9.410;2022-08-19T01:08:19;25.77;;;15.60;;
71572;SDS011;59408;51.032;9.410;2022-08-19T01:10:48;27.20;;;16.67;;
71572;SDS011;59408;51.032;9.410;2022-08-19T01:13:17;25.05;;;15.63;;
71572;SDS011;59408;51.032;9.410;2022-08-19T01:15:48;22.48;;;14.57;;
71572;SDS011;59408;51.032;9.410;2022-08-19T01:18:19;24.13;;;14.55;;
71572;SDS011;59408;51.032;9.410;2022-08-19T01:20:47;24.90;;;15.83;;
71572;SDS011;59408;51.032;9.410;2022-08-19T01:23:16;25.90;;;15.73;;
71572;SDS011;59408;51.032;9.410;2022-08-19T01:25:44;26.38;;;15.25;;
71572;SDS011;59408;51.032;9.410;2022-08-19T01:28:17;25.52;;;14.60;;
71572;SDS011;59408;51.032;9.410;2022-08-19T01:31:05;26.33;;;15.73;;
71572;SDS011;59408;51.032;9.410;2022-08-19T01:33:33;26.33;;;16.02;;
71572;SDS011;59408;51.032;9.410;2022-08-19T01:36:04;26.53;;;15.17;;
71572;SDS011;59408;51.032;9.410;2022-08-19T01:38:34;26.30;;;16.30;;
71572;SDS011;59408;51.032;9.410;2022-08-19T01:41:10;25.15;;;15.50;;
71572;SDS011;59408;51.032;9.410;2022-08-19T01:43:37;24.30;;;15.25;;
71572;SDS011;59408;51.032;9.410;2022-08-19T01:46:24;25.48;;;14.55;;
71572;SDS011;59408;51.032;9.410;2022-08-19T01:48:51;23.80;;;14.65;;
71572;SDS011;59408;51.032;9.410;2022-08-19T01:51:17;23.47;;;14.20;;
71572;SDS011;59408;51.032;9.410;2022-08-19T01:53:48;20.65;;;13.57;;
71572;SDS011;59408;51.032;9.410;2022-08-19T01:56:15;23.42;;;13.80;;
71572;SDS011;59408;51.032;9.410;2022-08-19T01:58:43;23.10;;;14.05;;
71572;SDS011;59408;51.032;9.410;2022-08-19T02:01:13;21.80;;;12.85;;
71572;SDS011;59408;51.032;9.410;2022-08-19T02:03:39;21.70;;;13.07;;
71572;SDS011;59408;51.032;9.410;2022-08-19T02:06:06;23.60;;;14.60;;
71572;SDS011;59408;51.032;9.410;2022-08-19T02:08:35;24.63;;;14.65;;
71572;SDS011;59408;51.032;9.410;2022-08-19T02:11:04;22.55;;;14.27;;
71572;SDS011;59408;51.032;9.410;2022-08-19T02:13:31;25.92;;;15.10;;
71572;SDS011;59408;51.032;9.410;2022-08-19T02:15:58;22.80;;;14.17;;
71572;SDS011;59408;51.032;9.410;2022-08-19T02:18:29;22.53;;;14.07;;
71572;SDS011;59408;51.032;9.410;2022-08-19T02:20:56;24.90;;;14.40;;
71572;SDS011;59408;51.032;9.410;2022-08-19T02:23:22;22.65;;;13.80;;
71572;SDS011;59408;51.032;9.410;2022-08-19T02:25:49;28.55;;;15.68;;
71572;SDS011;59408;51.032;9.410;2022-08-19T02:28:18;25.33;;;15.90;;
71572;SDS011;59408;51.032;9.410;2022-08-19T02:30:46;26.33;;;15.30;;
71572;SDS011;59408;51.032;9.410;2022-08-19T02:33:14;24.57;;;14.80;;
71572;SDS011;59408;51.032;9.410;2022-08-19T02:35:41;25.17;;;15.32;;
71572;SDS011;59408;51.032;9.410;2022-08-19T02:38:08;24.30;;;14.95;;
71572;SDS011;59408;51.032;9.410;2022-08-19T02:40:35;23.40;;;14.70;;
71572;SDS011;59408;51.032;9.410;2022-08-19T02:43:01;22.13;;;14.18;;
71572;SDS011;59408;51.032;9.410;2022-08-19T02:45:32;24.10;;;14.03;;
71572;SDS011;59408;51.032;9.410;2022-08-19T02:47:59;21.37;;;13.83;;
71572;SDS011;59408;51.032;9.410;2022-08-19T02:50:28;22.27;;;14.13;;
71572;SDS011;59408;51.032;9.410;2022-08-19T02:52:55;22.60;;;13.50;;
71572;SDS011;59408;51.032;9.410;2022-08-19T02:55:21;20.10;;;13.35;;
71572;SDS011;59408;51.032;9.410;2022-08-19T02:57:48;20.20;;;12.45;;
71572;SDS011;59408;51.032;9.410;2022-08-19T03:00:15;20.38;;;12.93;;
71572;SDS011;59408;51.032;9.410;2022-08-19T03:02:43;19.77;;;12.50;;
71572;SDS011;59408;51.032;9.410;2022-08-19T03:05:10;19.80;;;12.52;;
71572;SDS011;59408;51.032;9.410;2022-08-19T03:07:37;25.10;;;14.25;;
71572;SDS011;59408;51.032;9.410;2022-08-19T03:10:04;23.00;;;14.40;;
71572;SDS011;59408;51.032;9.410;2022-08-19T03:12:31;22.20;;;13.77;;
71572;SDS011;59408;51.032;9.410;2022-08-19T03:15:02;23.27;;;14.97;;
71572;SDS011;59408;51.032;9.410;2022-08-19T03:17:29;22.27;;;13.17;;
71572;SDS011;59408;51.032;9.410;2022-08-19T03:19:57;19.85;;;13.23;;
71572;SDS011;59408;51.032;9.410;2022-08-19T03:22:24;23.50;;;14.50;;
71572;SDS011;59408;51.032;9.410;2022-08-19T03:24:50;21.95;;;12.88;;
71572;SDS011;59408;51.032;9.410;2022-08-19T03:27:17;22.25;;;13.35;;
71572;SDS011;59408;51.032;9.410;2022-08-19T03:29:43;22.23;;;13.27;;
71572;SDS011;59408;51.032;9.410;2022-08-19T03:32:10;23.63;;;13.55;;
71572;SDS011;59408;51.032;9.410;2022-08-19T03:34:58;22.08;;;13.63;;
71572;SDS011;59408;51.032;9.410;2022-08-19T03:37:25;23.95;;;14.55;;
71572;SDS011;59408;51.032;9.410;2022-08-19T03:39:52;23.05;;;15.15;;
71572;SDS011;59408;51.032;9.410;2022-08-19T03:42:18;23.03;;;12.80;;
71572;SDS011;59408;51.032;9.410;2022-08-19T03:45:05;23.23;;;13.70;;
71572;SDS011;59408;51.032;9.410;2022-08-19T03:47:33;23.30;;;13.85;;
71572;SDS011;59408;51.032;9.410;2022-08-19T03:50:01;21.88;;;13.77;;
71572;SDS011;59408;51.032;9.410;2022-08-19T03:52:27;22.50;;;13.32;;
71572;SDS011;59408;51.032;9.410;2022-08-19T03:54:54;21.67;;;13.60;;
71572;SDS011;59408;51.032;9.410;2022-08-19T03:57:21;22.27;;;13.70;;
71572;SDS011;59408;51.032;9.410;2022-08-19T03:59:57;23.00;;;13.55;;
71572;SDS011;59408;51.032;9.410;2022-08-19T04:02:38;22.58;;;13.75;;
71572;SDS011;59408;51.032;9.410;2022-08-19T04:05:06;22.77;;;14.13;;
71572;SDS011;59408;51.032;9.410;2022-08-19T04:07:33;23.52;;;14.18;;
71572;SDS011;59408;51.032;9.410;2022-08-19T04:10:00;21.90;;;13.30;;
71572;SDS011;59408;51.032;9.410;2022-08-19T04:12:26;20.10;;;13.10;;
71572;SDS011;59408;51.032;9.410;2022-08-19T04:14:54;24.17;;;13.90;;
71572;SDS011;59408;51.032;9.410;2022-08-19T04:17:20;22.02;;;14.77;;
71572;SDS011;59408;51.032;9.410;2022-08-19T04:19:47;21.25;;;14.00;;
71572;SDS011;59408;51.032;9.410;2022-08-19T04:22:15;23.20;;;14.18;;
71572;SDS011;59408;51.032;9.410;2022-08-19T04:24:41;21.47;;;13.70;;
71572;SDS011;59408;51.032;9.410;2022-08-19T04:27:08;21.10;;;13.40;;
71572;SDS011;59408;51.032;9.410;2022-08-19T04:29:34;20.67;;;13.23;;
71572;SDS011;59408;51.032;9.410;2022-08-19T04:32:01;20.55;;;13.35;;
71572;SDS011;59408;51.032;9.410;2022-08-19T04:34:34;20.70;;;12.93;;
71572;SDS011;59408;51.032;9.410;2022-08-19T04:37:23;18.48;;;11.60;;
71572;SDS011;59408;51.032;9.410;2022-08-19T04:39:50;21.37;;;13.03;;
71572;SDS011;59408;51.032;9.410;2022-08-19T04:42:23;22.20;;;12.60;;
71572;SDS011;59408;51.032;9.410;2022-08-19T04:44:56;19.98;;;12.40;;
71572;SDS011;59408;51.032;9.410;2022-08-19T04:47:24;19.42;;;12.95;;
71572;SDS011;59408;51.032;9.410;2022-08-19T04:50:10;19.10;;;12.15;;
71572;SDS011;59408;51.032;9.410;2022-08-19T04:52:39;22.23;;;12.85;;
71572;SDS011;59408;51.032;9.410;2022-08-19T04:55:06;21.27;;;12.77;;
71572;SDS011;59408;51.032;9.410;2022-08-19T04:57:33;19.00;;;12.00;;
71572;SDS011;59408;51.032;9.410;2022-08-19T04:59:59;22.55;;;12.75;;
71572;SDS011;59408;51.032;9.410;2022-08-19T05:02:26;18.20;;;11.32;;
71572;SDS011;59408;51.032;9.410;2022-08-19T05:04:56;19.48;;;11.13;;
71572;SDS011;59408;51.032;9.410;2022-08-19T05:07:23;17.03;;;11.10;;
71572;SDS011;59408;51.032;9.410;2022-08-19T05:09:51;18.08;;;10.45;;
71572;SDS011;59408;51.032;9.410;2022-08-19T05:12:24;17.00;;;10.60;;
71572;SDS011;59408;51.032;9.410;2022-08-19T05:14:54;17.67;;;11.40;;
71572;SDS011;59408;51.032;9.410;2022-08-19T05:17:21;16.63;;;10.35;;
71572;SDS011;59408;51.032;9.410;2022-08-19T05:19:53;18.93;;;10.10;;
71572;SDS011;59408;51.032;9.410;2022-08-19T05:22:20;16.80;;;10.57;;
71572;SDS011;59408;51.032;9.410;2022-08-19T05:24:46;14.70;;;9.25;;
71572;SDS011;59408;51.032;9.410;2022-08-19T05:27:35;15.77;;;9.32;;
71572;SDS011;59408;51.032;9.410;2022-08-19T05:30:02;15.93;;;9.65;;
71572;SDS011;59408;51.032;9.410;2022-08-19T05:32:29;15.83;;;9.80;;
71572;SDS011;59408;51.032;9.410;2022-08-19T05:34:56;17.33;;;10.00;;
71572;SDS011;59408;51.032;9.410;2022-08-19T05:37:22;14.88;;;9.13;;
71572;SDS011;59408;51.032;9.410;2022-08-19T05:39:49;16.63;;;9.40;;
71572;SDS011;59408;51.032;9.410;2022-08-19T05:42:17;14.25;;;9.23;;
71572;SDS011;59408;51.032;9.410;2022-08-19T05:44:44;15.00;;;9.17;;
71572;SDS011;59408;51.032;9.410;2022-08-19T05:47:12;17.40;;;9.47;;
71572;SDS011;59408;51.032;9.410;2022-08-19T05:49:39;15.90;;;9.40;;
71572;SDS011;59408;51.032;9.410;2022-08-19T05:52:07;15.60;;;9.00;;
71572;SDS011;59408;51.032;9.410;2022-08-19T05:54:37;13.30;;;8.88;;
71572;SDS011;59408;51.032;9.410;2022-08-19T05:57:04;15.85;;;8.98;;
71572;SDS011;59408;51.032;9.410;2022-08-19T05:59:30;16.17;;;9.73;;
71572;SDS011;59408;51.032;9.410;2022-08-19T06:01:58;15.60;;;9.05;;
71572;SDS011;59408;51.032;9.410;2022-08-19T06:04:25;16.05;;;8.75;;
71572;SDS011;59408;51.032;9.410;2022-08-19T06:06:52;17.40;;;8.80;;
71572;SDS011;59408;51.032;9.410;2022-08-19T06:09:19;13.82;;;8.38;;
71572;SDS011;59408;51.032;9.410;2022-08-19T06:11:48;13.20;;;8.33;;
71572;SDS011;59408;51.032;9.410;2022-08-19T06:14:22;15.77;;;8.20;;
71572;SDS011;59408;51.032;9.410;2022-08-19T06:16:53;13.00;;;7.70;;
71572;SDS011;59408;51.032;9.410;2022-08-19T06:19:22;13.07;;;8.30;;
71572;SDS011;59408;51.032;9.410;2022-08-19T06:21:49;13.23;;;8.27;;
71572;SDS011;59408;51.032;9.410;2022-08-19T06:24:18;11.13;;;7.32;;
71572;SDS011;59408;51.032;9.410;2022-08-19T06:26:46;12.57;;;7.63;;
71572;SDS011;59408;51.032;9.410;2022-08-19T06:29:14;13.07;;;7.30;;
71572;SDS011;59408;51.032;9.410;2022-08-19T06:31:50;13.82;;;7.68;;
71572;SDS011;59408;51.032;9.410;2022-08-19T06:34:18;13.60;;;7.30;;
71572;SDS011;59408;51.032;9.410;2022-08-19T06:36:47;13.23;;;7.85;;
71572;SDS011;59408;51.032;9.410;2022-08-19T06:39:16;14.73;;;8.17;;
71572;SDS011;59408;51.032;9.410;2022-08-19T06:41:45;13.70;;;7.93;;
71572;SDS011;59408;51.032;9.410;2022-08-19T06:44:20;12.90;;;7.30;;
71572;SDS011;59408;51.032;9.410;2022-08-19T06:46:50;13.95;;;7.28;;
71572;SDS011;59408;51.032;9.410;2022-08-19T06:49:20;10.95;;;7.20;;
71572;SDS011;59408;51.032;9.410;2022-08-19T06:51:49;11.40;;;6.73;;
71572;SDS011;59408;51.032;9.410;2022-08-19T06:54:17;12.67;;;6.60;;
71572;SDS011;59408;51.032;9.410;2022-08-19T06:56:45;13.82;;;7.13;;
71572;SDS011;59408;51.032;9.410;2022-08-19T06:59:15;12.45;;;7.10;;
71572;SDS011;59408;51.032;9.410;2022-08-19T07:01:44;12.32;;;7.32;;
71572;SDS011;59408;51.032;9.410;2022-08-19T07:04:12;11.68;;;7.60;;
71572;SDS011;59408;51.032;9.410;2022-08-19T07:06:40;12.57;;;7.07;;
71572;SDS011;59408;51.032;9.410;2022-08-19T07:09:12;13.15;;;7.43;;
71572;SDS011;59408;51.032;9.410;2022-08-19T07:11:44;11.68;;;6.65;;
71572;SDS011;59408;51.032;9.410;2022-08-19T07:14:12;15.68;;;7.35;;
71572;SDS011;59408;51.032;9.410;2022-08-19T07:16:46;12.63;;;6.75;;
71572;SDS011;59408;51.032;9.410;2022-08-19T07:19:14;11.20;;;6.93;;
71572;SDS011;59408;51.032;9.410;2022-08-19T07:21:44;11.73;;;6.60;;
71572;SDS011;59408;51.032;9.410;2022-08-19T07:24:13;10.82;;;6.50;;
71572;SDS011;59408;51.032;9.410;2022-08-19T07:26:40;11.32;;;6.13;;
71572;SDS011;59408;51.032;9.410;2022-08-19T07:29:09;12.73;;;6.30;;
71572;SDS011;59408;51.032;9.410;2022-08-19T07:31:36;11.03;;;6.20;;
71572;SDS011;59408;51.032;9.410;2022-08-19T07:34:04;9.68;;;6.32;;
71572;SDS011;59408;51.032;9.410;2022-08-19T07:36:33;10.43;;;5.85;;
71572;SDS011;59408;51.032;9.410;2022-08-19T07:39:03;9.75;;;5.65;;
71572;SDS011;59408;51.032;9.410;2022-08-19T07:41:34;10.50;;;6.32;;
71572;SDS011;59408;51.032;9.410;2022-08-19T07:44:01;10.07;;;6.00;;
71572;SDS011;59408;51.032;9.410;2022-08-19T07:46:29;9.37;;;5.93;;
71572;SDS011;59408;51.032;9.410;2022-08-19T07:48:56;9.90;;;5.65;;
71572;SDS011;59408;51.032;9.410;2022-08-19T07:51:23;9.63;;;5.68;;
71572;SDS011;59408;51.032;9.410;2022-08-19T07:54:02;10.05;;;5.88;;
71572;SDS011;59408;51.032;9.410;2022-08-19T07:56:29;10.57;;;6.13;;
71572;SDS011;59408;51.032;9.410;2022-08-19T07:58:57;10.07;;;6.00;;
71572;SDS011;59408;51.032;9.410;2022-08-19T08:01:25;8.40;;;5.70;;
71572;SDS011;59408;51.032;9.410;2022-08-19T08:03:53;9.60;;;5.68;;
71572;SDS011;59408;51.032;9.410;2022-08-19T08:06:22;11.70;;;5.97;;
71572;SDS011;59408;51.032;9.410;2022-08-19T08:08:49;9.68;;;5.47;;
71572;SDS011;59408;51.032;9.410;2022-08-19T08:11:18;11.48;;;5.82;;
71572;SDS011;59408;51.032;9.410;2022-08-19T08:13:46;10.87;;;5.67;;
71572;SDS011;59408;51.032;9.410;2022-08-19T08:16:28;9.35;;;5.97;;
71572;SDS011;59408;51.032;9.410;2022-08-19T08:18:55;13.15;;;6.20;;
71572;SDS011;59408;51.032;9.410;2022-08-19T08:21:22;9.48;;;5.07;;
71572;SDS011;59408;51.032;9.410;2022-08-19T08:23:49;10.00;;;5.53;;
71572;SDS011;59408;51.032;9.410;2022-08-19T08:26:19;9.27;;;4.93;;
71572;SDS011;59408;51.032;9.410;2022-08-19T08:28:46;8.50;;;4.72;;
71572;SDS011;59408;51.032;9.410;2022-08-19T08:31:14;7.13;;;4.43;;
71572;SDS011;59408;51.032;9.410;2022-08-19T08:33:42;7.55;;;4.32;;
71572;SDS011;59408;51.032;9.410;2022-08-19T08:36:09;8.20;;;3.72;;
71572;SDS011;59408;51.032;9.410;2022-08-19T08:38:37;7.83;;;4.37;;
71572;SDS011;59408;51.032;9.410;2022-08-19T08:41:08;8.45;;;3.92;;
71572;SDS011;59408;51.032;9.410;2022-08-19T08:43:40;8.02;;;4.47;;
71572;SDS011;59408;51.032;9.410;2022-08-19T08:46:08;6.53;;;3.70;;
71572;SDS011;59408;51.032;9.410;2022-08-19T08:48:46;8.43;;;4.20;;
71572;SDS011;59408;51.032;9.410;2022-08-19T08:51:20;9.23;;;4.00;;
71572;SDS011;59408;51.032;9.410;2022-08-19T08:53:55;8.40;;;4.03;;
71572;SDS011;59408;51.032;9.410;2022-08-19T08:56:22;8.60;;;4.00;;
71572;SDS011;59408;51.032;9.410;2022-08-19T08:58:51;6.60;;;3.92;;
71572;SDS011;59408;51.032;9.410;2022-08-19T09:01:23;7.50;;;4.22;;
71572;SDS011;59408;51.032;9.410;2022-08-19T09:03:57;9.23;;;4.27;;
71572;SDS011;59408;51.032;9.410;2022-08-19T09:06:30;7.28;;;4.15;;
71572;SDS011;59408;51.032;9.410;2022-08-19T09:09:10;6.85;;;3.67;;
71572;SDS011;59408;51.032;9.410;2022-08-19T09:11:48;6.90;;;3.78;;
71572;SDS011;59408;51.032;9.410;2022-08-19T09:14:32;7.32;;;3.70;;
71572;SDS011;59408;51.032;9.410;2022-08-19T09:17:18;7.17;;;3.87;;
71572;SDS011;59408;51.032;9.410;2022-08-19T09:19:50;9.02;;;3.80;;
71572;SDS011;59408;51.032;9.410;2022-08-19T09:22:19;6.43;;;3.60;;
71572;SDS011;59408;51.032;9.410;2022-08-19T09:24:51;7.28;;;3.78;;
71572;SDS011;59408;51.032;9.410;2022-08-19T09:27:18;7.15;;;3.47;;
71572;SDS011;59408;51.032;9.410;2022-08-19T09:29:45;7.63;;;3.73;;
71572;SDS011;59408;51.032;9.410;2022-08-19T09:32:12;6.57;;;3.40;;
71572;SDS011;59408;51.032;9.410;2022-08-19T09:34:53;5.70;;;3.20;;
71572;SDS011;59408;51.032;9.410;2022-08-19T09:37:20;5.82;;;3.10;;
71572;SDS011;59408;51.032;9.410;2022-08-19T09:39:50;6.63;;;3.80;;
71572;SDS011;59408;51.032;9.410;2022-08-19T09:42:17;7.83;;;3.50;;
71572;SDS011;59408;51.032;9.410;2022-08-19T09:44:55;6.10;;;2.90;;
71572;SDS011;59408;51.032;9.410;2022-08-19T09:47:25;5.72;;;3.13;;
71572;SDS011;59408;51.032;9.410;2022-08-19T09:49:51;6.20;;;3.35;;
71572;SDS011;59408;51.032;9.410;2022-08-19T09:52:20;7.95;;;4.28;;
71572;SDS011;59408;51.032;9.410;2022-08-19T09:54:47;6.37;;;3.77;;
71572;SDS011;59408;51.032;9.410;2022-08-19T09:57:17;6.35;;;3.40;;
71572;SDS011;59408;51.032;9.410;2022-08-19T09:59:44;6.57;;;3.90;;
71572;SDS011;59408;51.032;9.410;2022-08-19T10:02:10;7.75;;;3.90;;
71572;SDS011;59408;51.032;9.410;2022-08-19T10:04:37;8.05;;;3.80;;
71572;SDS011;59408;51.032;9.410;2022-08-19T10:07:05;6.97;;;3.87;;
71572;SDS011;59408;51.032;9.410;2022-08-19T10:09:33;6.15;;;3.15;;
71572;SDS011;59408;51.032;9.410;2022-08-19T10:12:00;7.55;;;3.40;;
71572;SDS011;59408;51.032;9.410;2022-08-19T10:14:28;5.43;;;3.08;;
71572;SDS011;59408;51.032;9.410;2022-08-19T10:16:55;6.05;;;3.53;;
71572;SDS011;59408;51.032;9.410;2022-08-19T10:19:21;7.73;;;3.70;;
71572;SDS011;59408;51.032;9.410;2022-08-19T10:21:51;6.85;;;3.50;;
71572;SDS011;59408;51.032;9.410;2022-08-19T10:24:19;6.72;;;3.45;;
71572;SDS011;59408;51.032;9.410;2022-08-19T10:26:47;6.93;;;3.67;;
71572;SDS011;59408;51.032;9.410;2022-08-19T10:29:21;6.38;;;3.67;;
71572;SDS011;59408;51.032;9.410;2022-08-19T10:31:58;6.93;;;3.53;;
71572;SDS011;59408;51.032;9.410;2022-08-19T10:34:29;6.32;;;3.10;;
71572;SDS011;59408;51.032;9.410;2022-08-19T10:36:56;6.57;;;3.95;;
71572;SDS011;59408;51.032;9.410;2022-08-19T10:39:27;6.32;;;3.75;;
71572;SDS011;59408;51.032;9.410;2022-08-19T10:41:57;7.38;;;3.60;;
71572;SDS011;59408;51.032;9.410;2022-08-19T10:44:24;6.10;;;3.00;;
71572;SDS011;59408;51.032;9.410;2022-08-19T10:46:58;5.88;;;3.17;;
71572;SDS011;59408;51.032;9.410;2022-08-19T10:49:25;5.90;;;3.58;;
71572;SDS011;59408;51.032;9.410;2022-08-19T10:51:53;6.25;;;3.63;;
71572;SDS011;59408;51.032;9.410;2022-08-19T10:54:20;6.65;;;3.50;;
71572;SDS011;59408;51.032;9.410;2022-08-19T10:57:00;6.77;;;3.57;;
71572;SDS011;59408;51.032;9.410;2022-08-19T10:59:27;6.45;;;3.40;;
71572;SDS011;59408;51.032;9.410;2022-08-19T11:02:01;7.03;;;4.03;;
71572;SDS011;59408;51.032;9.410;2022-08-19T11:04:29;6.15;;;3.58;;
71572;SDS011;59408;51.032;9.410;2022-08-19T11:06:56;6.95;;;3.88;;
71572;SDS011;59408;51.032;9.410;2022-08-19T11:09:23;5.97;;;3.37;;
71572;SDS011;59408;51.032;9.410;2022-08-19T11:12:00;5.63;;;3.58;;
71572;SDS011;59408;51.032;9.410;2022-08-19T11:14:30;7.70;;;3.95;;
71572;SDS011;59408;51.032;9.410;2022-08-19T11:16:59;6.38;;;3.80;;
71572;SDS011;59408;51.032;9.410;2022-08-19T11:19:26;7.55;;;3.90;;
71572;SDS011;59408;51.032;9.410;2022-08-19T11:21:53;6.20;;;3.63;;
71572;SDS011;59408;51.032;9.410;2022-08-19T11:24:24;8.60;;;3.78;;
71572;SDS011;59408;51.032;9.410;2022-08-19T11:26:52;7.10;;;4.00;;
71572;SDS011;59408;51.032;9.410;2022-08-19T11:29:21;6.07;;;3.53;;
71572;SDS011;59408;51.032;9.410;2022-08-19T11:31:48;6.78;;;4.00;;
71572;SDS011;59408;51.032;9.410;2022-08-19T11:34:18;6.07;;;3.40;;
71572;SDS011;59408;51.032;9.410;2022-08-19T11:36:46;6.20;;;3.50;;
71572;SDS011;59408;51.032;9.410;2022-08-19T11:39:15;5.60;;;3.55;;
71572;SDS011;59408;51.032;9.410;2022-08-19T11:41:43;5.68;;;3.30;;
71572;SDS011;59408;51.032;9.410;2022-08-19T11:44:10;6.60;;;3.53;;
71572;SDS011;59408;51.032;9.410;2022-08-19T11:46:38;6.07;;;3.30;;
71572;SDS011;59408;51.032;9.410;2022-08-19T11:49:05;6.10;;;3.60;;
71572;SDS011;59408;51.032;9.410;2022-08-19T11:51:39;6.03;;;3.35;;
71572;SDS011;59408;51.032;9.410;2022-08-19T11:54:06;5.70;;;3.40;;
71572;SDS011;59408;51.032;9.410;2022-08-19T11:56:32;6.25;;;3.50;;
71572;SDS011;59408;51.032;9.410;2022-08-19T11:59:00;7.10;;;3.70;;
71572;SDS011;59408;51.032;9.410;2022-08-19T12:01:27;5.55;;;3.70;;
71572;SDS011;59408;51.032;9.410;2022-08-19T12:03:55;5.78;;;3.70;;
71572;SDS011;59408;51.032;9.410;2022-08-19T12:06:24;6.70;;;3.55;;
71572;SDS011;59408;51.032;9.410;2022-08-19T12:08:57;9.38;;;4.43;;
71572;SDS011;59408;51.032;9.410;2022-08-19T12:11:26;5.30;;;3.30;;
71572;SDS011;59408;51.032;9.410;2022-08-19T12:13:54;6.60;;;3.50;;
71572;SDS011;59408;51.032;9.410;2022-08-19T12:16:21;5.97;;;3.80;;
71572;SDS011;59408;51.032;9.410;2022-08-19T12:18:49;5.55;;;3.65;;
71572;SDS011;59408;51.032;9.410;2022-08-19T12:21:18;6.88;;;3.70;;
71572;SDS011;59408;51.032;9.410;2022-08-19T12:23:47;6.27;;;3.43;;
71572;SDS011;59408;51.032;9.410;2022-08-19T12:26:21;5.40;;;3.10;;
71572;SDS011;59408;51.032;9.410;2022-08-19T12:28:48;6.22;;;3.63;;
71572;SDS011;59408;51.032;9.410;2022-08-19T12:31:15;5.90;;;3.30;;
71572;SDS011;59408;51.032;9.410;2022-08-19T12:33:41;7.68;;;3.60;;
71572;SDS011;59408;51.032;9.410;2022-08-19T12:36:09;5.83;;;3.73;;
71572;SDS011;59408;51.032;9.410;2022-08-19T12:38:38;5.95;;;3.58;;
71572;SDS011;59408;51.032;9.410;2022-08-19T12:41:05;5.63;;;3.08;;
71572;SDS011;59408;51.032;9.410;2022-08-19T12:43:35;5.65;;;3.40;;
71572;SDS011;59408;51.032;9.410;2022-08-19T12:46:03;5.97;;;3.45;;
71572;SDS011;59408;51.032;9.410;2022-08-19T12:48:30;6.67;;;3.63;;
71572;SDS011;59408;51.032;9.410;2022-08-19T12:51:00;6.53;;;3.40;;
71572;SDS011;59408;51.032;9.410;2022-08-19T12:53:31;6.45;;;3.80;;
71572;SDS011;59408;51.032;9.410;2022-08-19T12:56:01;6.55;;;3.80;;
71572;SDS011;59408;51.032;9.410;2022-08-19T12:58:32;7.95;;;4.10;;
71572;SDS011;59408;51.032;9.410;2022-08-19T13:00:59;6.37;;;3.90;;
71572;SDS011;59408;51.032;9.410;2022-08-19T13:03:25;7.05;;;3.60;;
71572;SDS011;59408;51.032;9.410;2022-08-19T13:05:52;7.40;;;4.05;;
71572;SDS011;59408;51.032;9.410;2022-08-19T13:08:18;5.60;;;3.70;;
71572;SDS011;59408;51.032;9.410;2022-08-19T13:10:45;6.00;;;3.67;;
71572;SDS011;59408;51.032;9.410;2022-08-19T13:13:13;7.07;;;3.87;;
71572;SDS011;59408;51.032;9.410;2022-08-19T13:15:40;6.75;;;3.30;;
71572;SDS011;59408;51.032;9.410;2022-08-19T13:18:08;5.75;;;3.78;;
71572;SDS011;59408;51.032;9.410;2022-08-19T13:20:37;6.07;;;3.80;;
71572;SDS011;59408;51.032;9.410;2022-08-19T13:23:04;6.57;;;3.70;;
71572;SDS011;59408;51.032;9.410;2022-08-19T13:25:31;5.93;;;3.53;;
71572;SDS011;59408;51.032;9.410;2022-08-19T13:27:58;6.97;;;3.95;;
71572;SDS011;59408;51.032;9.410;2022-08-19T13:30:27;6.03;;;3.88;;
71572;SDS011;59408;51.032;9.410;2022-08-19T13:32:53;7.13;;;4.28;;
71572;SDS011;59408;51.032;9.410;2022-08-19T13:35:20;6.80;;;3.80;;
71572;SDS011;59408;51.032;9.410;2022-08-19T13:37:47;5.97;;;3.73;;
71572;SDS011;59408;51.032;9.410;2022-08-19T13:40:14;5.72;;;3.75;;
71572;SDS011;59408;51.032;9.410;2022-08-19T13:42:42;6.38;;;3.50;;
71572;SDS011;59408;51.032;9.410;2022-08-19T13:45:10;6.25;;;4.15;;
71572;SDS011;59408;51.032;9.410;2022-08-19T13:47:38;7.40;;;4.10;;
71572;SDS011;59408;51.032;9.410;2022-08-19T13:50:05;6.50;;;4.00;;
71572;SDS011;59408;51.032;9.410;2022-08-19T13:52:32;5.78;;;3.90;;
71572;SDS011;59408;51.032;9.410;2022-08-19T13:54:59;6.20;;;4.38;;
71572;SDS011;59408;51.032;9.410;2022-08-19T13:57:25;7.85;;;4.28;;
71572;SDS011;59408;51.032;9.410;2022-08-19T13:59:52;6.97;;;4.47;;
71572;SDS011;59408;51.032;9.410;2022-08-19T14:02:19;7.20;;;4.40;;
71572;SDS011;59408;51.032;9.410;2022-08-19T14:04:47;6.95;;;4.22;;
71572;SDS011;59408;51.032;9.410;2022-08-19T14:07:13;7.97;;;4.65;;
71572;SDS011;59408;51.032;9.410;2022-08-19T14:09:40;7.72;;;4.10;;
71572;SDS011;59408;51.032;9.410;2022-08-19T14:12:08;7.03;;;4.57;;
71572;SDS011;59408;51.032;9.410;2022-08-19T14:14:36;8.77;;;4.80;;
71572;SDS011;59408;51.032;9.410;2022-08-19T14:17:05;7.53;;;4.50;;
71572;SDS011;59408;51.032;9.410;2022-08-19T14:19:32;7.32;;;4.90;;
71572;SDS011;59408;51.032;9.410;2022-08-19T14:22:00;7.05;;;4.53;;
71572;SDS011;59408;51.032;9.410;2022-08-19T14:24:27;7.57;;;4.65;;
71572;SDS011;59408;51.032;9.410;2022-08-19T14:26:53;5.93;;;4.00;;
71572;SDS011;59408;51.032;9.410;2022-08-19T14:29:20;6.93;;;4.22;;
71572;SDS011;59408;51.032;9.410;2022-08-19T14:31:47;7.35;;;5.03;;
71572;SDS011;59408;51.032;9.410;2022-08-19T14:34:13;7.22;;;4.90;;
71572;SDS011;59408;51.032;9.410;2022-08-19T14:36:40;9.13;;;4.93;;
71572;SDS011;59408;51.032;9.410;2022-08-19T14:39:08;6.73;;;4.00;;
71572;SDS011;59408;51.032;9.410;2022-08-19T14:41:35;9.32;;;5.10;;
71572;SDS011;59408;51.032;9.410;2022-08-19T14:44:02;7.78;;;4.72;;
71572;SDS011;59408;51.032;9.410;2022-08-19T14:46:29;8.50;;;4.80;;